createdAt,value
2023-02-18T00:01:00.209Z,12.47
2023-02-18T00:03:30.301Z,12.45
2023-02-18T00:05:57.156Z,12.50
2023-02-18T00:08:23.585Z,12.45
2023-02-18T00:10:50.223Z,12.41
2023-02-18T00:13:16.641Z,12.43
2023-02-18T00:15:43.075Z,12.39
2023-02-18T00:18:09.617Z,12.38
2023-02-18T00:20:39.095Z,12.39
2023-02-18T00:23:05.499Z,12.39
2023-02-18T00:25:31.908Z,12.39
2023-02-18T00:27:58.273Z,12.39
2023-02-18T00:30:24.787Z,12.42
2023-02-18T00:32:51.293Z,12.49
2023-02-18T00:35:17.789Z,12.47
2023-02-18T00:37:44.292Z,12.41
2023-02-18T00:40:11.050Z,12.44
2023-02-18T00:42:37.722Z,12.39
2023-02-18T00:45:04.568Z,12.32
2023-02-18T00:47:31.023Z,12.30
2023-02-18T00:49:57.538Z,12.32
2023-02-18T00:52:23.915Z,12.28
2023-02-18T00:54:50.615Z,12.32
2023-02-18T00:57:16.970Z,12.30
2023-02-18T00:59:43.468Z,12.32
2023-02-18T01:02:09.969Z,12.31
2023-02-18T01:04:36.475Z,12.34
2023-02-18T01:07:02.979Z,12.38
2023-02-18T01:09:29.393Z,12.35
2023-02-18T01:11:55.861Z,12.39
2023-02-18T01:14:22.638Z,12.38
2023-02-18T01:16:49.106Z,12.42
2023-02-18T01:19:15.513Z,12.40
2023-02-18T01:21:41.883Z,12.38
2023-02-18T01:24:08.230Z,12.44
2023-02-18T01:26:34.712Z,12.43
2023-02-18T01:29:01.188Z,12.44
2023-02-18T01:31:27.878Z,12.45
2023-02-18T01:33:54.465Z,12.47
2023-02-18T01:36:21.108Z,12.47
2023-02-18T01:38:47.467Z,12.44
2023-02-18T01:41:13.976Z,12.45
2023-02-18T01:43:40.446Z,12.50
2023-02-18T01:46:14.913Z,12.50
2023-02-18T01:48:42.969Z,12.48
2023-02-18T01:51:13.823Z,12.53
2023-02-18T01:53:49.397Z,12.44
2023-02-18T01:56:33.725Z,12.38
2023-02-18T01:59:03.389Z,12.37
2023-02-18T02:01:32.289Z,12.34
2023-02-18T02:03:59.267Z,12.35
2023-02-18T02:06:26.642Z,12.39
2023-02-18T02:08:57.448Z,12.34
2023-02-18T02:11:27.875Z,12.38
2023-02-18T02:13:57.190Z,12.38
2023-02-18T02:16:42.549Z,12.37
2023-02-18T02:19:23.211Z,12.33
2023-02-18T02:22:04.953Z,12.36
2023-02-18T02:24:46.494Z,12.40
2023-02-18T02:27:20.425Z,12.35
2023-02-18T02:30:15.151Z,12.37
2023-02-18T02:33:07.424Z,12.38
2023-02-18T02:35:44.515Z,12.37
2023-02-18T02:38:22.956Z,12.39
2023-02-18T02:41:18.369Z,12.37
2023-02-18T02:43:53.070Z,12.33
2023-02-18T02:46:35.146Z,12.29
2023-02-18T02:49:23.762Z,12.27
2023-02-18T02:52:03.401Z,12.32
2023-02-18T02:54:30.714Z,12.33
2023-02-18T02:57:15.888Z,12.35
2023-02-18T02:59:47.715Z,12.37
2023-02-18T03:02:23.734Z,12.38
2023-02-18T03:05:13.161Z,12.35
2023-02-18T03:07:54.895Z,12.27
2023-02-18T03:10:36.559Z,12.27
2023-02-18T03:13:15.739Z,12.24
2023-02-18T03:16:01.598Z,12.30
2023-02-18T03:18:39.183Z,12.27
2023-02-18T03:21:15.272Z,12.29
2023-02-18T03:24:00.918Z,12.27
2023-02-18T03:26:30.416Z,12.18
2023-02-18T03:29:02.568Z,12.21
2023-02-18T03:31:32.036Z,12.24
2023-02-18T03:34:07.685Z,12.23
2023-02-18T03:36:35.680Z,12.19
2023-02-18T03:39:10.598Z,12.23
2023-02-18T03:41:37.609Z,12.17
2023-02-18T03:44:07.045Z,12.19
2023-02-18T03:46:34.935Z,12.19
2023-02-18T03:49:01.483Z,12.13
2023-02-18T03:51:28.267Z,12.15
2023-02-18T03:53:54.864Z,12.09
2023-02-18T03:56:21.576Z,12.06
2023-02-18T03:58:48.009Z,12.06
2023-02-18T04:01:14.569Z,12.00
2023-02-18T04:03:41.143Z,11.99
2023-02-18T04:06:08.102Z,12.02
2023-02-18T04:08:34.862Z,11.92
2023-02-18T04:11:01.779Z,11.88
2023-02-18T04:13:28.655Z,11.82
2023-02-18T04:15:55.101Z,11.79
2023-02-18T04:18:22.166Z,11.81
2023-02-18T04:20:48.941Z,11.78
2023-02-18T04:23:15.476Z,11.66
2023-02-18T04:25:41.943Z,11.70
2023-02-18T04:28:11.245Z,11.67
2023-02-18T04:30:37.923Z,11.68
2023-02-18T04:33:04.530Z,11.73
2023-02-18T04:35:30.985Z,11.77
2023-02-18T04:37:57.543Z,11.78
2023-02-18T04:40:25.507Z,11.76
2023-02-18T04:42:52.135Z,11.68
2023-02-18T04:45:18.697Z,11.69
2023-02-18T04:47:45.052Z,11.69
2023-02-18T04:50:11.548Z,11.68
2023-02-18T04:52:38.065Z,11.66
2023-02-18T04:55:04.716Z,11.68
2023-02-18T04:57:31.229Z,11.76
2023-02-18T04:59:57.821Z,11.76
2023-02-18T05:02:24.296Z,11.75
2023-02-18T05:04:50.780Z,11.71
2023-02-18T05:07:17.382Z,11.66
2023-02-18T05:09:43.824Z,11.67
2023-02-18T05:12:10.202Z,11.70
2023-02-18T05:14:36.638Z,11.68
2023-02-18T05:17:03.252Z,11.70
2023-02-18T05:19:29.702Z,11.71
2023-02-18T05:21:56.215Z,11.59
2023-02-18T05:24:22.811Z,11.59
2023-02-18T05:26:49.207Z,11.59
2023-02-18T05:29:15.688Z,11.55
2023-02-18T05:31:42.387Z,11.52
2023-02-18T05:34:09.011Z,11.52
2023-02-18T05:36:35.609Z,11.51
2023-02-18T05:39:02.050Z,11.44
2023-02-18T05:41:28.392Z,11.40
2023-02-18T05:44:13.612Z,11.42
2023-02-18T05:46:40.153Z,11.41
2023-02-18T05:49:06.588Z,11.45
2023-02-18T05:51:33.254Z,11.47
2023-02-18T05:53:59.650Z,11.44
2023-02-18T05:56:25.984Z,11.47
2023-02-18T05:58:52.474Z,11.45
2023-02-18T06:01:18.931Z,11.40
2023-02-18T06:03:45.320Z,11.46
2023-02-18T06:06:12.083Z,11.40
2023-02-18T06:08:38.802Z,11.38
2023-02-18T06:11:05.325Z,11.34
2023-02-18T06:13:31.922Z,11.32
2023-02-18T06:15:58.485Z,11.32
2023-02-18T06:18:25.149Z,11.31
2023-02-18T06:20:51.551Z,11.34
2023-02-18T06:23:18.777Z,11.39
2023-02-18T06:25:45.263Z,11.39
2023-02-18T06:28:11.701Z,11.42
2023-02-18T06:30:38.162Z,11.40
2023-02-18T06:33:04.900Z,11.42
2023-02-18T06:35:31.782Z,11.41
2023-02-18T06:37:58.290Z,11.43
2023-02-18T06:40:24.660Z,11.47
2023-02-18T06:42:51.225Z,11.44
2023-02-18T06:45:17.632Z,11.49
2023-02-18T06:47:44.186Z,11.54
2023-02-18T06:50:10.889Z,11.56
2023-02-18T06:52:38.147Z,11.57
2023-02-18T06:55:05.930Z,11.56
2023-02-18T06:57:32.426Z,11.61
2023-02-18T06:59:58.938Z,11.66
2023-02-18T07:02:25.320Z,11.68
2023-02-18T07:04:51.699Z,11.74
2023-02-18T07:07:18.134Z,11.75
2023-02-18T07:09:44.547Z,11.78
2023-02-18T07:12:10.894Z,11.80
2023-02-18T07:14:37.493Z,11.82
2023-02-18T07:17:03.885Z,11.81
2023-02-18T07:19:30.228Z,11.86
2023-02-18T07:21:57.781Z,11.86
2023-02-18T07:24:24.527Z,11.90
2023-02-18T07:26:50.901Z,11.96
2023-02-18T07:29:17.446Z,12.03
2023-02-18T07:31:43.997Z,12.02
2023-02-18T07:34:10.355Z,12.02
2023-02-18T07:36:36.873Z,12.00
2023-02-18T07:39:03.341Z,12.04
2023-02-18T07:41:29.776Z,12.11
2023-02-18T07:43:56.248Z,12.16
2023-02-18T07:46:22.643Z,12.15
2023-02-18T07:48:49.012Z,12.14
2023-02-18T07:51:15.501Z,12.17
2023-02-18T07:53:42.900Z,12.20
2023-02-18T07:56:09.614Z,12.16
2023-02-18T07:58:37.931Z,12.14
2023-02-18T08:01:06.273Z,12.13
2023-02-18T08:03:34.605Z,12.15
2023-02-18T08:06:02.749Z,12.18
2023-02-18T08:08:30.939Z,12.12
2023-02-18T08:11:02.650Z,12.06
2023-02-18T08:13:30.109Z,11.93
2023-02-18T08:15:57.081Z,11.92
2023-02-18T08:18:25.475Z,11.84
2023-02-18T08:20:52.425Z,11.74
2023-02-18T08:23:21.356Z,11.67
2023-02-18T08:25:50.435Z,11.64
2023-02-18T08:28:21.953Z,11.69
2023-02-18T08:30:50.377Z,11.65
2023-02-18T08:33:17.723Z,11.61
2023-02-18T08:35:44.855Z,11.64
2023-02-18T08:38:11.495Z,11.58
2023-02-18T08:40:37.906Z,11.57
2023-02-18T08:43:04.232Z,11.56
2023-02-18T08:45:30.614Z,11.54
2023-02-18T08:48:19.392Z,11.53
2023-02-18T08:50:43.332Z,11.54
2023-02-18T08:53:09.708Z,11.51
2023-02-18T08:55:38.027Z,11.56
2023-02-18T08:58:05.037Z,11.49
2023-02-18T09:00:31.483Z,11.39
2023-02-18T09:02:57.946Z,11.35
2023-02-18T09:05:24.339Z,11.36
2023-02-18T09:07:50.722Z,11.40
2023-02-18T09:10:17.209Z,11.38
2023-02-18T09:12:43.620Z,11.37
2023-02-18T09:15:10.136Z,11.40
2023-02-18T09:17:36.589Z,11.39
2023-02-18T09:20:04.008Z,11.43
2023-02-18T09:22:30.500Z,11.39
2023-02-18T09:24:56.855Z,11.39
2023-02-18T09:27:23.304Z,11.41
2023-02-18T09:29:50.798Z,11.42
2023-02-18T09:32:28.800Z,11.48
2023-02-18T09:35:00.466Z,11.56
2023-02-18T09:37:26.837Z,11.55
2023-02-18T09:39:53.251Z,11.59
2023-02-18T09:42:22.814Z,11.64
2023-02-18T09:44:52.638Z,11.61
2023-02-18T09:47:35.023Z,11.65
2023-02-18T09:50:09.014Z,11.62
2023-02-18T09:52:38.356Z,11.62
2023-02-18T09:55:28.357Z,11.69
2023-02-18T09:57:59.522Z,11.69
2023-02-18T10:00:34.976Z,11.69
2023-02-18T10:03:11.362Z,11.68
2023-02-18T10:05:42.476Z,11.69
2023-02-18T10:08:39.817Z,11.70
2023-02-18T10:11:16.455Z,11.65
2023-02-18T10:13:43.798Z,11.70
2023-02-18T10:16:18.195Z,11.67
2023-02-18T10:18:52.865Z,11.65
2023-02-18T10:21:24.174Z,11.68
2023-02-18T10:23:54.594Z,11.72
2023-02-18T10:26:21.834Z,11.74
2023-02-18T10:28:49.341Z,11.79
2023-02-18T10:31:23.342Z,11.78
2023-02-18T10:34:02.686Z,11.81
2023-02-18T10:36:44.758Z,11.79
2023-02-18T10:39:45.107Z,11.76
2023-02-18T10:42:17.598Z,11.78
2023-02-18T10:45:51.874Z,11.78
2023-02-18T10:48:39.094Z,11.73
2023-02-18T10:51:25.895Z,11.70
2023-02-18T10:53:53.769Z,11.74
2023-02-18T10:56:29.306Z,11.78
2023-02-18T10:59:05.570Z,11.77
2023-02-18T11:01:32.093Z,11.77
2023-02-18T11:04:15.836Z,11.76
2023-02-18T11:06:46.733Z,11.74
2023-02-18T11:09:47.445Z,11.63
2023-02-18T11:12:24.606Z,11.54
2023-02-18T11:15:08.170Z,11.47
2023-02-18T11:17:37.805Z,11.46
2023-02-18T11:20:47.274Z,11.44
2023-02-18T11:23:18.005Z,11.46
2023-02-18T11:26:15.678Z,11.43
2023-02-18T11:28:48.362Z,11.42
2023-02-18T11:31:26.913Z,11.41
2023-02-18T11:33:57.593Z,11.40
2023-02-18T11:36:35.303Z,11.40
2023-02-18T11:39:18.430Z,11.33
2023-02-18T11:41:53.252Z,11.28
2023-02-18T11:44:24.099Z,11.33
2023-02-18T11:47:03.436Z,11.28
2023-02-18T11:49:32.232Z,11.20
2023-02-18T11:52:12.386Z,11.13
2023-02-18T11:54:38.809Z,11.14
2023-02-18T11:57:12.235Z,11.14
2023-02-18T11:59:40.788Z,11.13
2023-02-18T12:02:10.073Z,11.09
2023-02-18T12:04:51.869Z,11.10
2023-02-18T12:07:30.155Z,11.00
2023-02-18T12:10:00.178Z,11.04
2023-02-18T12:12:30.973Z,11.04
2023-02-18T12:14:59.772Z,11.06
2023-02-18T12:17:52.244Z,11.09
2023-02-18T12:20:37.368Z,11.08
2023-02-18T12:23:13.178Z,11.06
2023-02-18T12:25:56.441Z,11.06
2023-02-18T12:28:39.733Z,11.06
2023-02-18T12:31:33.398Z,11.10
2023-02-18T12:34:31.107Z,11.05
2023-02-18T12:37:31.780Z,11.09
2023-02-18T12:40:28.562Z,11.05
2023-02-18T12:43:06.311Z,11.08
2023-02-18T12:45:56.452Z,11.03
2023-02-18T12:48:49.237Z,11.05
2023-02-18T12:51:36.167Z,11.07
2023-02-18T12:54:35.262Z,11.06
2023-02-18T12:57:16.889Z,11.06
2023-02-18T13:00:04.770Z,11.13
2023-02-18T13:03:03.957Z,11.14
2023-02-18T13:05:56.321Z,11.10
2023-02-18T13:08:58.723Z,11.14
2023-02-18T13:11:36.245Z,11.12
2023-02-18T13:14:26.394Z,11.13
2023-02-18T13:16:57.404Z,11.19
2023-02-18T13:19:44.995Z,11.19
2023-02-18T13:22:12.825Z,11.15
2023-02-18T13:24:43.570Z,11.19
2023-02-18T13:27:17.613Z,11.18
2023-02-18T13:29:59.926Z,11.18
2023-02-18T13:33:09.207Z,11.19
2023-02-18T13:35:39.308Z,11.18
2023-02-18T13:38:24.134Z,11.20
2023-02-18T13:40:51.398Z,11.21
2023-02-18T13:43:33.411Z,11.18
2023-02-18T13:46:18.897Z,11.20
2023-02-18T13:48:53.258Z,11.18
2023-02-18T13:51:38.734Z,11.25
2023-02-18T13:54:12.184Z,11.20
2023-02-18T13:56:54.790Z,11.21
2023-02-18T13:59:42.814Z,11.19
2023-02-18T14:02:21.635Z,11.18
2023-02-18T14:05:15.218Z,11.25
2023-02-18T14:07:47.462Z,11.23
2023-02-18T14:10:13.815Z,11.24
2023-02-18T14:13:01.246Z,11.26
2023-02-18T14:15:27.575Z,11.29
2023-02-18T14:18:15.356Z,11.23
2023-02-18T14:20:51.137Z,11.24
2023-02-18T14:23:20.524Z,11.22
2023-02-18T14:25:57.245Z,11.22
2023-02-18T14:28:37.663Z,11.18
2023-02-18T14:31:30.470Z,11.24
2023-02-18T14:34:10.982Z,11.26
2023-02-18T14:36:49.409Z,11.22
2023-02-18T14:39:31.066Z,11.22
2023-02-18T14:42:24.598Z,11.30
2023-02-18T14:45:36.543Z,11.35
2023-02-18T14:48:42.597Z,11.37
2023-02-18T14:51:10.429Z,11.40
2023-02-18T14:53:44.734Z,11.38
2023-02-18T14:56:15.889Z,11.42
2023-02-18T14:58:46.605Z,11.42
2023-02-18T15:01:34.272Z,11.44
2023-02-18T15:04:01.904Z,11.45
2023-02-18T15:06:28.296Z,11.41
2023-02-18T15:08:55.067Z,11.40
2023-02-18T15:11:24.362Z,11.41
2023-02-18T15:13:51.512Z,11.38
2023-02-18T15:16:34.140Z,11.43
2023-02-18T15:19:03.540Z,11.45
2023-02-18T15:21:34.687Z,11.42
2023-02-18T15:24:18.828Z,11.43
2023-02-18T15:26:50.255Z,11.40
2023-02-18T15:29:22.653Z,11.46
2023-02-18T15:31:49.540Z,11.48
2023-02-18T15:34:33.031Z,11.42
2023-02-18T15:37:01.155Z,11.45
2023-02-18T15:39:28.333Z,11.48
2023-02-18T15:41:56.519Z,11.51
2023-02-18T15:44:27.058Z,11.46
2023-02-18T15:46:53.988Z,11.47
2023-02-18T15:49:24.296Z,11.48
2023-02-18T15:51:55.794Z,11.55
2023-02-18T15:54:23.835Z,11.52
2023-02-18T15:56:53.634Z,11.47
2023-02-18T15:59:21.766Z,11.44
2023-02-18T16:01:57.037Z,11.43
2023-02-18T16:04:30.038Z,11.40
2023-02-18T16:06:56.576Z,11.38
2023-02-18T16:09:29.610Z,11.37
2023-02-18T16:11:59.612Z,11.42
2023-02-18T16:14:40.432Z,11.45
2023-02-18T16:17:16.745Z,11.47
2023-02-18T16:20:03.530Z,11.49
2023-02-18T16:22:30.953Z,11.54
2023-02-18T16:25:00.788Z,11.50
2023-02-18T16:27:36.211Z,11.54
2023-02-18T16:30:14.794Z,11.54
2023-02-18T16:32:41.160Z,11.54
2023-02-18T16:35:07.898Z,11.55
2023-02-18T16:37:40.226Z,11.56
2023-02-18T16:40:15.687Z,11.60
2023-02-18T16:42:42.040Z,11.59
2023-02-18T16:45:12.377Z,11.57
2023-02-18T16:47:39.932Z,11.69
2023-02-18T16:50:14.004Z,11.79
2023-02-18T16:52:40.380Z,11.76
2023-02-18T16:55:27.916Z,11.71
2023-02-18T16:57:54.662Z,11.67
2023-02-18T17:00:22.322Z,11.68
2023-02-18T17:02:50.697Z,11.66
2023-02-18T17:05:26.375Z,11.63
2023-02-18T17:07:54.506Z,11.64
2023-02-18T17:10:21.323Z,11.64
2023-02-18T17:12:47.698Z,11.65
2023-02-18T17:15:37.987Z,11.63
2023-02-18T17:18:04.738Z,11.62
2023-02-18T17:20:32.976Z,11.63
2023-02-18T17:22:59.711Z,11.69
2023-02-18T17:25:32.660Z,11.71
2023-02-18T17:27:59.037Z,11.74
2023-02-18T17:30:25.509Z,11.74
2023-02-18T17:32:52.438Z,11.71
2023-02-18T17:35:21.773Z,11.75
2023-02-18T17:37:48.879Z,11.75
2023-02-18T17:40:26.222Z,11.78
2023-02-18T17:42:54.675Z,11.77
2023-02-18T17:45:28.723Z,11.72
2023-02-18T17:47:57.028Z,11.73
2023-02-18T17:50:24.127Z,11.71
2023-02-18T17:52:50.902Z,11.69
2023-02-18T17:55:24.975Z,11.74
2023-02-18T17:57:52.576Z,11.78
2023-02-18T18:00:28.162Z,11.79
2023-02-18T18:02:55.282Z,11.80
2023-02-18T18:05:26.302Z,11.81
2023-02-18T18:07:53.671Z,11.79
2023-02-18T18:10:22.110Z,11.77
2023-02-18T18:12:49.599Z,11.80
2023-02-18T18:15:29.726Z,11.71
2023-02-18T18:17:57.084Z,11.66
2023-02-18T18:20:25.838Z,11.61
2023-02-18T18:22:54.278Z,11.56
2023-02-18T18:25:25.543Z,11.53
2023-02-18T18:27:52.792Z,11.48
2023-02-18T18:30:26.160Z,11.43
2023-02-18T18:32:52.764Z,11.43
2023-02-18T18:35:33.126Z,11.44
2023-02-18T18:38:00.430Z,11.36
2023-02-18T18:40:30.334Z,11.34
2023-02-18T18:42:58.842Z,11.28
2023-02-18T18:45:34.228Z,11.28
2023-02-18T18:48:01.198Z,11.26
2023-02-18T18:50:28.220Z,11.25
2023-02-18T18:52:54.981Z,11.31
2023-02-18T18:55:27.296Z,11.37
2023-02-18T18:57:54.680Z,11.38
2023-02-18T19:00:25.047Z,11.44
2023-02-18T19:02:51.524Z,11.43
2023-02-18T19:05:27.810Z,11.45
2023-02-18T19:07:54.776Z,11.43
2023-02-18T19:10:22.390Z,11.44
2023-02-18T19:12:49.739Z,11.46
2023-02-18T19:15:20.737Z,11.46
2023-02-18T19:17:50.847Z,11.53
2023-02-18T19:20:21.334Z,11.54
2023-02-18T19:22:48.199Z,11.57
2023-02-18T19:25:15.243Z,11.61
2023-02-18T19:27:43.482Z,11.56
2023-02-18T19:30:13.853Z,11.55
2023-02-18T19:32:40.549Z,11.56
2023-02-18T19:35:07.070Z,11.56
2023-02-18T19:37:34.540Z,11.54
2023-02-18T19:40:01.188Z,11.56
2023-02-18T19:42:28.674Z,11.62
2023-02-18T19:44:55.792Z,11.57
2023-02-18T19:47:26.367Z,11.57
2023-02-18T19:49:53.575Z,11.57
2023-02-18T19:52:21.602Z,11.66
2023-02-18T19:54:48.091Z,11.67
2023-02-18T19:57:14.638Z,11.65
2023-02-18T19:59:41.277Z,11.66
2023-02-18T20:02:10.392Z,11.64
2023-02-18T20:04:36.740Z,11.67
2023-02-18T20:07:03.960Z,11.70
2023-02-18T20:09:30.344Z,11.70
2023-02-18T20:11:56.709Z,11.69
2023-02-18T20:14:26.907Z,11.68
2023-02-18T20:16:53.853Z,11.69
2023-02-18T20:19:26.301Z,11.66
2023-02-18T20:21:52.791Z,11.63
2023-02-18T20:24:19.162Z,11.66
2023-02-18T20:26:45.664Z,11.65
2023-02-18T20:29:12.037Z,11.63
2023-02-18T20:31:39.212Z,11.66
2023-02-18T20:34:05.887Z,11.68
2023-02-18T20:36:32.286Z,11.68
2023-02-18T20:39:07.616Z,11.65
2023-02-18T20:41:40.959Z,11.68
2023-02-18T20:44:09.931Z,11.66
2023-02-18T20:46:37.879Z,11.64
2023-02-18T20:49:11.671Z,11.69
2023-02-18T20:51:38.025Z,11.67
2023-02-18T20:54:09.923Z,11.65
2023-02-18T20:56:37.868Z,11.67
2023-02-18T20:59:05.425Z,11.67
2023-02-18T21:01:32.604Z,11.66
2023-02-18T21:03:59.021Z,11.66
2023-02-18T21:06:25.639Z,11.71
2023-02-18T21:08:53.684Z,11.71
2023-02-18T21:11:26.020Z,11.73
2023-02-18T21:13:55.061Z,11.71
2023-02-18T21:16:23.182Z,11.75
2023-02-18T21:18:50.030Z,11.75
2023-02-18T21:21:17.093Z,11.74
2023-02-18T21:23:43.670Z,11.74
2023-02-18T21:26:16.179Z,11.74
2023-02-18T21:28:45.897Z,11.73
2023-02-18T21:31:27.879Z,11.76
2023-02-18T21:33:54.409Z,11.72
2023-02-18T21:36:21.575Z,11.69
2023-02-18T21:38:52.810Z,11.73
2023-02-18T21:41:19.816Z,11.75
2023-02-18T21:43:47.084Z,11.77
2023-02-18T21:46:20.058Z,11.81
2023-02-18T21:49:01.916Z,11.78
2023-02-18T21:51:54.721Z,11.80
2023-02-18T21:54:37.358Z,11.79
2023-02-18T21:57:04.927Z,11.75
2023-02-18T21:59:32.898Z,11.70
2023-02-18T22:02:00.464Z,11.65
2023-02-18T22:04:29.489Z,11.62
2023-02-18T22:06:55.920Z,11.57
2023-02-18T22:09:22.720Z,11.58
2023-02-18T22:11:49.312Z,11.53
2023-02-18T22:14:17.021Z,11.53
2023-02-18T22:16:43.770Z,11.57
2023-02-18T22:19:11.748Z,11.48
2023-02-18T22:21:38.483Z,11.47
2023-02-18T22:24:06.563Z,11.44
2023-02-18T22:26:33.466Z,11.48
2023-02-18T22:29:00.864Z,11.46
2023-02-18T22:31:29.188Z,11.47
2023-02-18T22:33:57.153Z,11.42
2023-02-18T22:36:24.839Z,11.43
2023-02-18T22:38:53.632Z,11.43
2023-02-18T22:41:22.549Z,11.46
2023-02-18T22:43:53.491Z,11.41
2023-02-18T22:46:19.920Z,11.39
2023-02-18T22:48:46.316Z,11.35
2023-02-18T22:51:16.662Z,11.41
2023-02-18T22:53:44.056Z,11.42
2023-02-18T22:56:13.470Z,11.36
2023-02-18T22:58:41.431Z,11.29
2023-02-18T23:01:09.280Z,11.29
2023-02-18T23:03:35.940Z,11.31
2023-02-18T23:06:05.981Z,11.31
2023-02-18T23:08:33.533Z,11.29
2023-02-18T23:11:05.342Z,11.26
2023-02-18T23:13:32.078Z,11.23
2023-02-18T23:16:00.015Z,11.22
2023-02-18T23:18:27.430Z,11.19
2023-02-18T23:21:17.408Z,11.20
2023-02-18T23:23:52.371Z,11.22
2023-02-18T23:26:21.271Z,11.19
2023-02-18T23:28:47.742Z,11.17
2023-02-18T23:31:20.159Z,11.18
2023-02-18T23:33:49.427Z,11.22
2023-02-18T23:36:18.400Z,11.22
2023-02-18T23:38:49.407Z,11.23
2023-02-18T23:41:16.575Z,11.20
2023-02-18T23:43:43.770Z,11.18
2023-02-18T23:46:10.462Z,11.18
2023-02-18T23:48:38.415Z,11.19
2023-02-18T23:51:07.026Z,11.23
2023-02-18T23:53:34.871Z,11.28
2023-02-18T23:56:09.248Z,11.28
2023-02-18T23:58:35.728Z,11.27
